Keldron, SD (57634)

7:31 PM MDT on July 30, 2014 (GMT -0600)
RAWS SHADEHILL SD US (MSHDS2) Elev 2515 ft | 45.67 °N, 102.17 °W | Change Station

Current weather conditions updated 51 minutes ago

Clear
Clear
80 °F
Feels Like 80 °F
N
7
Wind Variable Wind from North
Gusts 12.0 mph

Tomorrow is forecast to be Warmer than today.

Today
High -- | Low -- °F
--% Chance of Precip.
Yesterday
High -- | Low -- °F
Precip. -- in
5:28 AM 8:19 PM
Waxing Crescent, 15% visible
Pressure 30.12 in
Visibility 10.0 miles
Clouds Clear
Heat Index 80 °F
Dew Point 53 °F
Humidity 39%
Rainfall 0.00 in
Snow Depth Not available.
UV 1 out of 12
Pollen 7.00 out of 12
Air Quality Not available.
Flu Activity Not available.
METAR KHEI 310053Z AUTO 01005KT 10SM CLR 26/12 A3015 RMK AO2 SLP197 T02610117

More Conditions Fewer Conditions

Pressure 30.12 in
Visibility 10.0 miles
Clouds Clear
Heat Index 80 °F
Dew Point 53 °F
Humidity 39%
Rainfall 0.00 in
Snow Depth Not available.
UV 1 out of 12
Pollen 7.00 out of 12
Air Quality Not available.
Flu Activity Not available.
METAR KHEI 310053Z AUTO 01005KT 10SM CLR 26/12 A3015 RMK AO2 SLP197 T02610117

More Conditions Fewer Conditions

10-Day Weather Forecast

Almanac

Astronomy

Jul. 30, 2014 Rise Set
Actual Time 5:28 AM MDT 8:19 PM MDT
Civil Twilight 4:53 AM MDT 8:53 PM MDT
Nautical Twilight 4:09 AM MDT 9:37 PM MDT
Astronomical Twilight 3:16 AM MDT 10:29 PM MDT
Moon 9:15 AM MDT (7/30) 9:47 PM MDT (7/30)
Length of Visible Light 16h 00m
Length of Day
14h 51m
Tomorrow will be 2m 27s shorter.
Waxing Crescent, 15% of the Moon is Illuminated
Today
Waxing Crescent
Aug 3
First Quarter
Aug 10
Full
Aug 17
Last Quarter
Aug 25
New

Today's Extremes

State Highs State Lows

Community

WunderPhotos

Upload Photos

1,739,264 photos uploaded!

Nearby

Snow Depth

Station Depth Elevation
Blind Park 0 in 6890 ft

Earthquake Activity

City Distance Mag. Time & Date
No recent earthquake activity has been reported nearby.
Minimum magnitude displayed is 2.5.

Coastal Water Temperatures

Place Temperature
No Stations Reporting

Nearby Weather Stations

Station Location Temp. Heat Index Dew Point Humidity Wind Precip. Elev Updated Type
RAWS SHADEHILL SD, Lemmon, SD 80 °F 80 °F 53 °F 39% North  at  7 mph 0.00 in / hr 2515 ft 6:40 PM MDT MADIS

Show More Stations Show Fewer Stations